Time;durP1;ratioP1;P1;durP2;ratioP2;P2;SDS_P1;SDS_P2;PMS_P1;PMS_P2;Temp;Humidity;BMP_temperature;BMP_pressure;BME280_temperature;BME280_humidity;BME280_pressure;Samples;Min_cycle;Max_cycle;Signal;HPM_P1;HPM_P2
2023/10/31 00:02:15;;;;;;;9.90;2.70;;;13.60;99.90;;;;;;4375917;28;659392;-69
2023/10/31 00:05:02;;;;;;;6.63;2.93;;;13.70;99.90;;;;;;4368000;28;658977;-70
2023/10/31 00:07:50;;;;;;;9.07;3.17;;;13.60;99.90;;;;;;4369307;28;659973;-68
2023/10/31 00:10:37;;;;;;;7.87;3.33;;;13.60;99.90;;;;;;4379467;28;658161;-69
2023/10/31 00:13:25;;;;;;;16.53;3.17;;;13.50;99.90;;;;;;4349157;28;659893;-69
2023/10/31 00:16:13;;;;;;;9.00;3.00;;;13.60;99.90;;;;;;4350461;28;660086;-70
2023/10/31 00:19:00;;;;;;;8.83;2.90;;;13.40;99.90;;;;;;4370591;28;659720;-68
2023/10/31 00:21:47;;;;;;;4.90;2.80;;;13.30;99.90;;;;;;4370405;28;659021;-70
2023/10/31 00:24:35;;;;;;;10.03;3.10;;;13.30;99.90;;;;;;4377221;28;659895;-68
2023/10/31 00:27:22;;;;;;;7.40;3.23;;;13.30;99.90;;;;;;4364803;28;660158;-69
2023/10/31 00:30:11;;;;;;;11.43;3.37;;;13.30;99.90;;;;;;4346836;28;660391;-68
2023/10/31 00:32:58;;;;;;;8.43;3.37;;;13.20;99.90;;;;;;4351376;28;659874;-69
2023/10/31 00:35:46;;;;;;;10.70;3.40;;;13.10;99.90;;;;;;4372041;28;659832;-68
2023/10/31 00:38:33;;;;;;;6.63;3.50;;;13.10;99.90;;;;;;4353002;28;659308;-69
2023/10/31 00:41:20;;;;;;;9.70;4.00;;;13.00;99.90;;;;;;4375749;28;660259;-69
2023/10/31 00:44:07;;;;;;;11.77;4.60;;;13.20;99.90;;;;;;4361185;28;658859;-69
2023/10/31 00:46:56;;;;;;;9.17;4.10;;;13.20;99.90;;;;;;4367892;28;660108;-68
2023/10/31 00:49:43;;;;;;;11.17;4.43;;;13.20;99.90;;;;;;4355124;28;659187;-69
2023/10/31 00:52:30;;;;;;;15.20;4.23;;;13.20;99.90;;;;;;4364081;28;661540;-69
2023/10/31 00:55:18;;;;;;;9.97;3.37;;;13.10;99.90;;;;;;4349247;28;659827;-69
2023/10/31 00:58:05;;;;;;;14.23;3.97;;;13.20;99.90;;;;;;4376844;28;659620;-68
2023/10/31 01:00:53;;;;;;;11.00;3.80;;;13.20;99.90;;;;;;4360004;28;659486;-70
2023/10/31 01:03:42;;;;;;;11.27;3.37;;;13.40;99.90;;;;;;4373916;28;660348;-68
2023/10/31 01:06:29;;;;;;;7.20;3.33;;;13.40;99.90;;;;;;4362795;28;661241;-68
2023/10/31 01:09:16;;;;;;;8.98;3.88;;;13.50;99.90;;;;;;4376276;28;658959;-69
2023/10/31 01:12:04;;;;;;;10.30;3.53;;;13.50;99.90;;;;;;4355823;28;659386;-69
2023/10/31 01:14:51;;;;;;;7.47;3.27;;;13.60;99.90;;;;;;4371548;28;659473;-68
2023/10/31 01:17:39;;;;;;;8.30;3.10;;;13.80;99.90;;;;;;4354439;28;658731;-69
2023/10/31 01:20:28;;;;;;;7.17;2.93;;;13.90;99.90;;;;;;4377216;28;658956;-68
2023/10/31 01:23:15;;;;;;;7.83;2.97;;;13.90;99.90;;;;;;4347698;28;658467;-68
2023/10/31 01:26:03;;;;;;;9.63;3.57;;;14.00;99.90;;;;;;4352713;28;658572;-70
2023/10/31 01:28:51;;;;;;;9.63;3.10;;;14.10;99.90;;;;;;4372858;28;658827;-68
2023/10/31 01:31:38;;;;;;;12.17;3.40;;;14.40;99.90;;;;;;4354206;28;658991;-70
2023/10/31 01:34:25;;;;;;;11.43;3.57;;;14.40;99.90;;;;;;4371949;28;660460;-68
2023/10/31 01:37:15;;;;;;;8.50;3.30;;;14.40;99.90;;;;;;4348128;28;659560;-69
2023/10/31 01:40:03;;;;;;;9.48;3.13;;;14.40;99.90;;;;;;4357756;28;658765;-70
2023/10/31 01:42:50;;;;;;;10.00;3.37;;;14.40;99.90;;;;;;4375247;28;659431;-68
2023/10/31 01:45:37;;;;;;;7.67;2.97;;;14.50;99.90;;;;;;4347172;28;659863;-70
2023/10/31 01:48:25;;;;;;;8.13;2.80;;;14.40;99.90;;;;;;4374846;28;659655;-68
2023/10/31 01:51:12;;;;;;;5.20;2.70;;;14.50;99.90;;;;;;4367062;28;659322;-69
2023/10/31 01:54:01;;;;;;;7.97;2.67;;;14.70;99.90;;;;;;4376753;28;659272;-68
2023/10/31 01:56:50;;;;;;;10.68;2.63;;;14.70;99.90;;;;;;4344627;28;658828;-69
2023/10/31 01:59:38;;;;;;;4.10;2.30;;;14.70;99.90;;;;;;4348609;28;659606;-68
2023/10/31 02:02:25;;;;;;;9.47;2.80;;;14.90;99.90;;;;;;4368490;28;660080;-68
2023/10/31 02:05:12;;;;;;;6.60;2.30;;;14.80;99.90;;;;;;4358616;28;658716;-70
2023/10/31 02:08:00;;;;;;;5.33;2.30;;;14.80;99.90;;;;;;4368524;28;660405;-70
2023/10/31 02:10:48;;;;;;;6.87;2.40;;;14.80;99.90;;;;;;4371086;28;659075;-68
2023/10/31 02:13:35;;;;;;;6.40;2.60;;;14.90;99.90;;;;;;4352539;28;660007;-69
2023/10/31 02:16:23;;;;;;;10.83;3.57;;;14.80;99.90;;;;;;4354193;28;659027;-69
2023/10/31 02:19:10;;;;;;;6.13;3.07;;;14.70;99.90;;;;;;4373792;28;660771;-68
2023/10/31 02:21:59;;;;;;;14.90;4.77;;;14.50;99.90;;;;;;4365258;28;659334;-70
2023/10/31 02:24:46;;;;;;;7.63;4.83;;;14.40;99.90;;;;;;4372542;28;659352;-69
2023/10/31 02:27:33;;;;;;;12.63;5.70;;;14.30;99.90;;;;;;4350498;28;659168;-68
2023/10/31 02:30:21;;;;;;;10.93;3.30;;;14.30;99.90;;;;;;4375791;28;660738;-68
2023/10/31 02:33:08;;;;;;;10.80;2.70;;;14.30;99.90;;;;;;4351290;28;660705;-69
2023/10/31 02:35:55;;;;;;;7.90;2.90;;;14.30;99.90;;;;;;4368256;28;659280;-70
2023/10/31 02:38:44;;;;;;;6.03;2.60;;;14.30;99.90;;;;;;4346166;28;659268;-70
2023/10/31 02:41:31;;;;;;;6.17;2.70;;;14.30;99.90;;;;;;4368443;28;658389;-68
2023/10/31 02:44:18;;;;;;;8.40;3.47;;;14.30;99.90;;;;;;4353234;28;659735;-69
2023/10/31 02:47:06;;;;;;;8.47;2.63;;;14.30;99.90;;;;;;4370555;28;658960;-68
2023/10/31 02:49:53;;;;;;;7.93;2.20;;;14.30;99.90;;;;;;4354106;28;658721;-69
2023/10/31 02:52:40;;;;;;;5.53;2.47;;;14.30;99.90;;;;;;4375903;28;659801;-69
2023/10/31 02:55:29;;;;;;;10.40;2.63;;;14.30;99.90;;;;;;4354494;28;658658;-69
2023/10/31 02:58:17;;;;;;;9.73;2.53;;;14.40;99.90;;;;;;4376323;28;660229;-69
2023/10/31 03:01:04;;;;;;;6.77;2.70;;;14.40;99.90;;;;;;4350566;28;658807;-69
2023/10/31 03:03:51;;;;;;;6.30;2.50;;;14.40;99.90;;;;;;4369460;28;658770;-68
2023/10/31 03:06:38;;;;;;;7.50;2.37;;;14.30;99.90;;;;;;4349453;28;658985;-68
2023/10/31 03:09:26;;;;;;;4.17;2.07;;;14.40;99.90;;;;;;4375836;28;660168;-68
2023/10/31 03:12:14;;;;;;;5.77;2.13;;;14.40;99.90;;;;;;4340014;28;658341;-69
2023/10/31 03:15:01;;;;;;;5.17;2.40;;;14.40;99.90;;;;;;4372957;28;658897;-68
2023/10/31 03:17:48;;;;;;;5.63;2.10;;;14.50;99.90;;;;;;4345410;28;659016;-68
2023/10/31 03:20:36;;;;;;;10.57;2.10;;;14.60;99.90;;;;;;4371028;28;658648;-68
2023/10/31 03:23:23;;;;;;;5.13;2.00;;;14.70;99.90;;;;;;4349645;28;660698;-69
2023/10/31 03:26:10;;;;;;;7.97;2.00;;;14.70;99.90;;;;;;4368740;28;660083;-68
2023/10/31 03:28:59;;;;;;;4.93;2.10;;;14.90;99.90;;;;;;4352551;28;658580;-69
2023/10/31 03:31:46;;;;;;;5.10;2.30;;;15.10;99.90;;;;;;4371714;28;658888;-68
2023/10/31 03:34:33;;;;;;;5.77;1.83;;;15.20;99.90;;;;;;4352518;28;658507;-69
2023/10/31 03:37:20;;;;;;;8.87;2.10;;;15.40;99.90;;;;;;4373220;28;660561;-68
2023/10/31 03:40:09;;;;;;;8.33;1.70;;;15.50;99.90;;;;;;4349205;28;659373;-69
2023/10/31 03:42:56;;;;;;;10.87;2.43;;;15.60;99.90;;;;;;4372327;28;658442;-69
2023/10/31 03:45:46;;;;;;;5.07;2.07;;;15.70;99.90;;;;;;4352037;28;659822;-68
2023/10/31 03:48:33;;;;;;;7.63;2.20;;;15.60;99.90;;;;;;4359017;28;659305;-69
2023/10/31 03:51:21;;;;;;;7.80;2.20;;;15.60;99.90;;;;;;4369901;28;659569;-68
2023/10/31 03:54:08;;;;;;;9.23;2.43;;;15.40;99.90;;;;;;4358501;28;658980;-68
2023/10/31 03:56:55;;;;;;;5.63;2.43;;;15.40;99.90;;;;;;4373950;28;659712;-69
2023/10/31 03:59:43;;;;;;;6.70;2.43;;;15.40;99.90;;;;;;4354506;28;658944;-68
2023/10/31 04:02:31;;;;;;;9.07;2.27;;;15.40;99.90;;;;;;4380738;28;659690;-68
2023/10/31 04:05:18;;;;;;;6.97;2.23;;;15.30;99.90;;;;;;4354854;28;658749;-68
2023/10/31 04:08:06;;;;;;;11.43;2.07;;;15.50;99.90;;;;;;4370360;28;659855;-68
2023/10/31 04:10:53;;;;;;;6.43;2.40;;;15.50;99.90;;;;;;4357852;28;660322;-68
2023/10/31 04:13:40;;;;;;;8.03;2.50;;;15.40;99.90;;;;;;4382419;28;660143;-68
2023/10/31 04:16:27;;;;;;;8.10;2.43;;;15.50;99.90;;;;;;4358911;28;658725;-68
2023/10/31 04:19:16;;;;;;;5.17;2.10;;;15.50;99.90;;;;;;4377145;28;659583;-68
2023/10/31 04:22:03;;;;;;;7.17;2.10;;;15.50;99.90;;;;;;4357967;28;658588;-68
2023/10/31 04:24:50;;;;;;;6.25;2.53;;;15.50;99.90;;;;;;4368665;28;660028;-68
2023/10/31 04:27:38;;;;;;;7.53;2.20;;;15.60;99.90;;;;;;4350802;28;658987;-69
2023/10/31 04:30:26;;;;;;;8.97;2.30;;;15.60;99.90;;;;;;4382925;28;660308;-67
2023/10/31 04:33:13;;;;;;;12.13;3.40;;;15.70;99.90;;;;;;4351837;28;658725;-69
2023/10/31 04:36:02;;;;;;;9.00;3.35;;;15.60;99.90;;;;;;4376082;28;659552;-69
2023/10/31 04:38:49;;;;;;;3.80;2.40;;;15.50;99.90;;;;;;4344544;28;660388;-68
2023/10/31 04:41:36;;;;;;;5.93;2.00;;;15.60;99.90;;;;;;4374461;28;658469;-67
2023/10/31 04:44:23;;;;;;;5.13;2.10;;;15.60;99.90;;;;;;4355489;28;659423;-68
2023/10/31 04:47:11;;;;;;;7.87;2.40;;;15.90;99.90;;;;;;4373960;28;658976;-68
2023/10/31 04:49:58;;;;;;;7.73;2.00;;;15.90;99.90;;;;;;4349490;28;658522;-68
2023/10/31 04:52:46;;;;;;;11.03;2.40;;;15.90;99.90;;;;;;4380197;28;660280;-68
2023/10/31 04:55:34;;;;;;;10.97;2.20;;;15.90;99.90;;;;;;4349522;28;660392;-68
2023/10/31 04:58:21;;;;;;;4.80;1.80;;;15.90;99.90;;;;;;4373599;28;659784;-68
2023/10/31 05:01:09;;;;;;;4.83;1.90;;;16.10;99.90;;;;;;4354288;28;660159;-68
2023/10/31 05:03:56;;;;;;;4.07;1.30;;;16.30;99.90;;;;;;4379761;28;658216;-68
2023/10/31 05:06:44;;;;;;;4.00;1.70;;;16.40;99.90;;;;;;4354199;28;658664;-67
2023/10/31 05:09:33;;;;;;;5.43;1.60;;;16.70;99.90;;;;;;4373619;28;659400;-68
2023/10/31 05:12:20;;;;;;;3.03;1.60;;;16.70;99.90;;;;;;4342337;28;659465;-68
2023/10/31 05:15:09;;;;;;;7.17;1.80;;;17.10;99.90;;;;;;4355865;28;658543;-69
2023/10/31 05:17:56;;;;;;;3.70;1.30;;;17.10;99.90;;;;;;4362844;28;658443;-68
2023/10/31 05:20:43;;;;;;;5.00;1.50;;;17.10;99.90;;;;;;4352509;28;658857;-68
2023/10/31 05:23:31;;;;;;;3.40;1.67;;;17.10;99.90;;;;;;4369837;28;659523;-68
2023/10/31 05:26:19;;;;;;;6.47;1.33;;;17.30;99.90;;;;;;4353521;28;659420;-68
2023/10/31 05:29:06;;;;;;;5.47;1.97;;;17.40;99.90;;;;;;4368888;28;658859;-68
2023/10/31 05:31:53;;;;;;;4.63;1.30;;;17.70;99.90;;;;;;4350857;28;658963;-67
2023/10/31 05:34:41;;;;;;;6.77;1.50;;;17.90;98.40;;;;;;4376296;28;659989;-68
2023/10/31 05:37:28;;;;;;;5.80;1.70;;;18.00;92.70;;;;;;4350057;28;658506;-68
2023/10/31 05:40:15;;;;;;;5.80;1.50;;;18.00;98.70;;;;;;4374193;28;659373;-68
2023/10/31 05:43:04;;;;;;;6.87;1.60;;;17.90;97.50;;;;;;4347816;28;658741;-68
2023/10/31 05:45:51;;;;;;;7.77;1.63;;;17.90;99.90;;;;;;4367013;28;658519;-68
2023/10/31 05:48:39;;;;;;;6.90;1.50;;;17.70;99.90;;;;;;4350254;28;658617;-69
2023/10/31 05:51:26;;;;;;;4.57;1.67;;;17.70;99.90;;;;;;4367252;28;658864;-67
2023/10/31 05:54:13;;;;;;;6.27;1.63;;;17.70;99.90;;;;;;4353790;28;658636;-68
2023/10/31 05:57:00;;;;;;;5.03;1.60;;;17.70;99.70;;;;;;4369640;28;659327;-67
2023/10/31 05:59:49;;;;;;;7.43;1.80;;;17.80;99.90;;;;;;4350617;28;658462;-68
2023/10/31 06:02:36;;;;;;;8.93;1.60;;;17.70;99.90;;;;;;4366563;28;658547;-67
2023/10/31 06:05:23;;;;;;;5.13;1.67;;;17.70;99.90;;;;;;4352516;28;659109;-68
2023/10/31 06:08:11;;;;;;;7.17;1.93;;;17.60;99.90;;;;;;4369873;28;659316;-68
2023/10/31 06:10:58;;;;;;;8.63;1.57;;;17.60;99.90;;;;;;4351563;28;659252;-68
2023/10/31 06:13:47;;;;;;;12.97;1.80;;;17.50;99.90;;;;;;4365172;28;658831;-75
2023/10/31 06:16:40;;;;;;;6.87;1.70;;;17.60;99.90;;;;;;4345661;28;660172;-74
2023/10/31 06:19:27;;;;;;;6.47;1.73;;;17.60;99.90;;;;;;4333214;28;658873;-75
2023/10/31 06:22:15;;;;;;;5.67;2.00;;;17.60;99.90;;;;;;4374459;28;659646;-75
2023/10/31 06:25:02;;;;;;;6.40;1.53;;;17.60;99.90;;;;;;4366413;28;658681;-75
2023/10/31 06:27:50;;;;;;;3.97;1.70;;;17.60;99.90;;;;;;4369114;28;659740;-74
2023/10/31 06:30:37;;;;;;;4.23;1.80;;;17.60;99.90;;;;;;4372246;28;658565;-74
2023/10/31 06:33:26;;;;;;;2.43;1.40;;;17.70;99.90;;;;;;4374466;28;659316;-75
2023/10/31 06:36:13;;;;;;;8.93;2.07;;;17.80;99.00;;;;;;4349692;28;658687;-75
2023/10/31 06:39:00;;;;;;;7.97;1.60;;;17.80;99.90;;;;;;4368235;28;659667;-75
2023/10/31 06:41:48;;;;;;;7.37;1.80;;;17.70;99.90;;;;;;4354184;28;658943;-75
2023/10/31 06:44:35;;;;;;;2.50;1.50;;;17.70;99.90;;;;;;4376962;28;659697;-74
2023/10/31 06:47:22;;;;;;;13.87;1.80;;;17.70;99.10;;;;;;4364979;28;658894;-74
2023/10/31 06:50:11;;;;;;;6.57;1.53;;;17.80;99.90;;;;;;4376341;28;659808;-74
2023/10/31 06:52:58;;;;;;;5.67;1.53;;;17.80;96.30;;;;;;4350493;28;658726;-74
2023/10/31 06:55:46;;;;;;;5.87;1.80;;;17.90;99.90;;;;;;4375003;28;660199;-74
2023/10/31 06:58:33;;;;;;;4.33;1.30;;;17.80;99.90;;;;;;4353994;28;658458;-72
2023/10/31 07:01:20;;;;;;;4.50;1.10;;;18.00;94.70;;;;;;4371604;28;658824;-74
2023/10/31 07:04:07;;;;;;;5.80;1.63;;;18.10;96.60;;;;;;4355349;28;658737;-73
2023/10/31 07:06:57;;;;;;;4.27;1.30;;;18.10;90.70;;;;;;4374037;28;659340;-74
2023/10/31 07:09:45;;;;;;;6.40;0.77;;;18.10;97.40;;;;;;4350909;28;658787;-73
2023/10/31 07:12:32;;;;;;;2.97;0.85;;;18.20;91.60;;;;;;4354788;28;658391;-72
2023/10/31 07:15:20;;;;;;;5.13;0.93;;;18.20;90.40;;;;;;4382780;28;659216;-72
2023/10/31 07:18:08;;;;;;;1.83;0.80;;;18.20;92.40;;;;;;4348862;28;658381;-72
2023/10/31 07:20:55;;;;;;;6.50;1.07;;;18.20;91.30;;;;;;4374486;28;659243;-72
2023/10/31 07:23:44;;;;;;;7.80;1.03;;;18.20;92.70;;;;;;4357562;28;658935;-73
2023/10/31 07:26:32;;;;;;;2.77;1.10;;;18.20;99.90;;;;;;4378215;28;658146;-71
2023/10/31 07:29:19;;;;;;;3.20;1.40;;;18.10;97.40;;;;;;4349098;28;659948;-73
2023/10/31 07:32:06;;;;;;;1.80;1.00;;;18.10;99.90;;;;;;4381665;28;657893;-73
2023/10/31 07:34:54;;;;;;;6.33;1.43;;;18.00;99.90;;;;;;4354465;28;659984;-73
2023/10/31 07:37:41;;;;;;;2.33;1.00;;;17.90;99.90;;;;;;4367709;28;659387;-72
2023/10/31 07:40:30;;;;;;;1.73;0.65;;;18.00;99.90;;;;;;4352371;28;659045;-72
2023/10/31 07:43:17;;;;;;;5.37;0.70;;;18.00;98.60;;;;;;4384426;28;658214;-72
2023/10/31 07:46:05;;;;;;;2.47;1.10;;;18.00;99.90;;;;;;4345089;28;659113;-73
2023/10/31 07:48:52;;;;;;;6.27;0.83;;;17.90;99.90;;;;;;4374704;28;658817;-72
2023/10/31 07:51:39;;;;;;;6.17;1.43;;;17.90;99.90;;;;;;4362778;28;658831;-72
2023/10/31 07:54:27;;;;;;;5.87;1.13;;;17.90;99.90;;;;;;4383125;28;658678;-73
2023/10/31 07:57:15;;;;;;;2.70;1.10;;;17.90;99.90;;;;;;4360886;28;659233;-71
2023/10/31 08:00:02;;;;;;;4.03;1.30;;;17.90;99.90;;;;;;4358191;28;658827;-73
2023/10/31 08:02:50;;;;;;;2.60;1.00;;;17.90;99.90;;;;;;4377459;28;658874;-72
2023/10/31 08:05:37;;;;;;;7.70;1.63;;;17.90;99.90;;;;;;4381074;28;658530;-73
2023/10/31 08:08:25;;;;;;;7.53;1.70;;;17.90;99.90;;;;;;4378921;28;658539;-72
2023/10/31 08:11:12;;;;;;;5.00;1.23;;;17.90;99.90;;;;;;4377069;28;658887;-72
2023/10/31 08:14:01;;;;;;;6.30;1.80;;;17.90;99.90;;;;;;4360679;28;658851;-73
2023/10/31 08:16:48;;;;;;;6.10;1.60;;;17.90;99.90;;;;;;4358177;28;659143;-72
2023/10/31 08:19:36;;;;;;;2.90;1.42;;;17.70;99.90;;;;;;4385829;28;659904;-73
2023/10/31 08:22:23;;;;;;;5.80;1.70;;;17.70;99.90;;;;;;4359963;28;658215;-73
2023/10/31 08:25:10;;;;;;;7.23;1.80;;;17.60;99.90;;;;;;4369589;28;659456;-73
2023/10/31 08:27:57;;;;;;;4.33;1.50;;;17.60;99.90;;;;;;4357896;28;658324;-73
2023/10/31 08:30:47;;;;;;;3.20;1.63;;;17.50;99.90;;;;;;4379923;28;658881;-73
2023/10/31 08:33:34;;;;;;;7.03;1.73;;;17.40;99.90;;;;;;4364883;28;658941;-73
2023/10/31 08:36:21;;;;;;;5.97;1.97;;;17.30;99.90;;;;;;4382392;28;658457;-74
2023/10/31 08:39:09;;;;;;;4.70;1.70;;;17.30;99.90;;;;;;4346480;28;658559;-73
2023/10/31 08:41:57;;;;;;;6.60;1.40;;;17.30;99.90;;;;;;4360448;28;659313;-74
2023/10/31 08:44:44;;;;;;;3.60;1.90;;;17.20;99.90;;;;;;4346639;28;659485;-74
2023/10/31 08:47:33;;;;;;;6.77;1.97;;;17.10;99.90;;;;;;4364321;28;658999;-74
2023/10/31 08:50:20;;;;;;;2.17;1.17;;;17.10;99.90;;;;;;4342676;28;659160;-72
2023/10/31 08:53:07;;;;;;;5.30;2.13;;;17.10;99.90;;;;;;4372169;28;659037;-72
2023/10/31 08:55:55;;;;;;;3.73;1.20;;;17.10;99.90;;;;;;4363406;28;659072;-72
2023/10/31 08:58:42;;;;;;;4.63;1.37;;;17.10;99.90;;;;;;4367045;28;658885;-72
2023/10/31 09:01:30;;;;;;;11.20;2.00;;;17.00;99.90;;;;;;4372527;28;659315;-72
2023/10/31 09:04:19;;;;;;;3.17;1.30;;;16.90;99.90;;;;;;4369039;28;660019;-71
2023/10/31 09:07:06;;;;;;;5.40;1.20;;;16.90;99.90;;;;;;4354124;28;658763;-72
2023/10/31 09:09:53;;;;;;;4.83;1.30;;;16.90;99.90;;;;;;4349132;28;659572;-73
2023/10/31 09:12:40;;;;;;;8.53;1.90;;;16.80;99.90;;;;;;4368408;28;658078;-73
2023/10/31 09:15:28;;;;;;;3.27;1.33;;;16.80;99.90;;;;;;4351078;28;658360;-72
2023/10/31 09:18:15;;;;;;;2.33;1.20;;;16.80;99.90;;;;;;4365975;28;660447;-72
2023/10/31 09:21:04;;;;;;;6.60;2.80;;;16.70;99.90;;;;;;4368284;28;659408;-74
2023/10/31 09:23:52;;;;;;;4.43;1.50;;;16.70;99.90;;;;;;4366032;28;658903;-73
2023/10/31 09:26:43;;;;;;;8.43;2.40;;;16.70;99.90;;;;;;4347153;28;658681;-74
2023/10/31 09:29:30;;;;;;;4.80;1.50;;;16.60;99.90;;;;;;4337788;28;660092;-74
2023/10/31 09:32:18;;;;;;;5.47;2.00;;;16.70;99.90;;;;;;4359731;28;658744;-74
2023/10/31 09:35:08;;;;;;;7.30;1.40;;;16.70;99.90;;;;;;4363192;28;659374;-74
2023/10/31 09:37:57;;;;;;;10.60;2.80;;;16.70;99.90;;;;;;4344582;28;659222;-75
2023/10/31 09:40:44;;;;;;;9.73;2.07;;;16.60;99.90;;;;;;4341429;28;660628;-74
2023/10/31 09:43:32;;;;;;;9.87;2.30;;;16.60;99.90;;;;;;4358081;28;658581;-73
2023/10/31 09:46:19;;;;;;;4.40;2.07;;;16.70;99.90;;;;;;4339355;28;658756;-73
2023/10/31 09:49:06;;;;;;;6.07;2.23;;;16.70;99.90;;;;;;4368204;28;658606;-74
2023/10/31 09:51:53;;;;;;;4.70;1.57;;;16.70;99.90;;;;;;4338426;28;658825;-72
2023/10/31 09:54:42;;;;;;;6.50;1.97;;;16.70;99.90;;;;;;4357362;28;659845;-74
2023/10/31 09:57:29;;;;;;;4.20;2.37;;;16.70;99.90;;;;;;4345137;28;659414;-74
2023/10/31 10:00:17;;;;;;;8.77;2.60;;;16.80;99.90;;;;;;4364095;28;659515;-74
2023/10/31 10:03:04;;;;;;;7.53;2.50;;;16.90;99.90;;;;;;4348985;28;659874;-74
2023/10/31 10:05:52;;;;;;;5.50;2.60;;;16.80;99.90;;;;;;4371762;28;657904;-74
2023/10/31 10:08:39;;;;;;;11.23;2.40;;;16.80;99.90;;;;;;4346074;28;658607;-72
2023/10/31 10:11:28;;;;;;;8.57;2.67;;;16.70;99.90;;;;;;4371285;28;660069;-73
2023/10/31 10:14:15;;;;;;;4.90;2.23;;;16.50;99.90;;;;;;4343532;28;659205;-74
2023/10/31 10:17:02;;;;;;;5.00;2.83;;;16.40;99.90;;;;;;4341828;28;659294;-73
2023/10/31 10:19:51;;;;;;;8.07;2.97;;;16.20;99.90;;;;;;4365165;28;658846;-74
2023/10/31 10:22:39;;;;;;;4.67;2.83;;;16.10;99.90;;;;;;4349534;28;659510;-74
2023/10/31 10:25:26;;;;;;;3.70;2.00;;;15.90;99.90;;;;;;4367483;28;658781;-72
2023/10/31 10:28:15;;;;;;;8.60;2.50;;;15.90;99.90;;;;;;4345193;28;659557;-74
2023/10/31 10:31:03;;;;;;;5.83;2.77;;;15.90;99.90;;;;;;4352019;28;658517;-73
2023/10/31 10:33:50;;;;;;;4.37;1.63;;;15.90;99.90;;;;;;4365897;28;659772;-74
2023/10/31 10:36:37;;;;;;;8.73;2.83;;;16.00;99.90;;;;;;4361411;28;658756;-74
2023/10/31 10:39:25;;;;;;;7.27;2.80;;;16.00;99.90;;;;;;4370004;28;659399;-74
2023/10/31 10:42:13;;;;;;;3.47;1.73;;;16.20;99.90;;;;;;4358356;28;658698;-74
2023/10/31 10:45:03;;;;;;;5.47;2.33;;;16.10;99.90;;;;;;4371502;28;659555;-73
2023/10/31 10:47:51;;;;;;;5.60;2.43;;;16.10;99.90;;;;;;4339825;28;658575;-75
2023/10/31 10:50:39;;;;;;;2.87;1.13;;;16.00;99.90;;;;;;4344625;28;660101;-74
2023/10/31 10:53:29;;;;;;;1.80;0.73;;;16.00;99.90;;;;;;4366986;28;658959;-74
2023/10/31 10:56:20;;;;;;;0.97;0.73;;;16.10;99.90;;;;;;4341164;28;658556;-73
2023/10/31 10:59:09;;;;;;;2.17;0.90;;;16.00;99.90;;;;;;4363324;28;658786;-74
2023/10/31 11:02:00;;;;;;;6.43;3.47;;;16.00;99.90;;;;;;4341443;28;659175;-73
2023/10/31 11:04:47;;;;;;;2.50;1.00;;;15.70;99.90;;;;;;4334988;28;659066;-73
2023/10/31 11:07:35;;;;;;;11.23;1.53;;;15.80;99.90;;;;;;4368271;28;659086;-73
2023/10/31 11:10:23;;;;;;;9.30;1.73;;;15.90;99.90;;;;;;4347455;28;660172;-74
2023/10/31 11:13:10;;;;;;;4.50;2.90;;;15.90;99.90;;;;;;4368366;28;659100;-74
2023/10/31 11:16:00;;;;;;;1.55;0.98;;;16.00;99.90;;;;;;4344048;28;658361;-73
2023/10/31 11:18:49;;;;;;;0.80;0.80;;;16.00;99.90;;;;;;4347046;28;658387;-72
2023/10/31 11:21:36;;;;;;;4.00;1.60;;;16.00;99.90;;;;;;4373140;28;658370;-74
2023/10/31 11:24:24;;;;;;;5.13;1.40;;;16.10;99.90;;;;;;4347038;28;658507;-73
2023/10/31 11:27:11;;;;;;;4.13;1.50;;;16.40;99.90;;;;;;4362810;28;658914;-73
2023/10/31 11:29:58;;;;;;;1.53;1.20;;;16.20;99.90;;;;;;4342435;28;658683;-72
2023/10/31 11:32:49;;;;;;;1.90;1.13;;;16.60;99.90;;;;;;4366723;28;659374;-74
2023/10/31 11:35:37;;;;;;;1.93;1.47;;;16.30;99.90;;;;;;4339173;28;658934;-73
2023/10/31 11:38:32;;;;;;;0.63;0.50;;;16.10;99.90;;;;;;4300959;28;1140045;-72
2023/10/31 11:41:19;;;;;;;3.07;1.00;;;16.40;99.90;;;;;;4343183;28;659514;-74
2023/10/31 11:44:06;;;;;;;5.00;1.50;;;16.40;99.90;;;;;;4368828;28;659647;-74
2023/10/31 11:46:54;;;;;;;3.73;2.13;;;17.20;99.90;;;;;;4346137;28;658746;-73
2023/10/31 11:49:48;;;;;;;1.23;0.97;;;16.80;99.90;;;;;;4365753;28;659069;-74
2023/10/31 11:52:36;;;;;;;2.23;0.97;;;16.30;99.90;;;;;;4319261;28;659449;-74
2023/10/31 11:55:23;;;;;;;3.17;0.90;;;16.20;99.90;;;;;;4349239;28;658984;-74
2023/10/31 11:58:18;;;;;;;1.63;1.17;;;15.90;99.90;;;;;;4368807;28;659519;-73
2023/10/31 12:01:06;;;;;;;2.43;1.50;;;15.80;99.90;;;;;;4344231;28;659109;-74
2023/10/31 12:03:53;;;;;;;1.27;0.93;;;15.70;99.90;;;;;;4345424;28;658570;-73
2023/10/31 12:06:41;;;;;;;3.53;1.30;;;15.50;99.90;;;;;;4363843;28;659638;-74
2023/10/31 12:09:29;;;;;;;2.23;1.40;;;15.50;99.90;;;;;;4345516;28;658634;-73
2023/10/31 12:12:17;;;;;;;1.00;0.33;;;15.50;99.90;;;;;;4361722;28;658800;-73
2023/10/31 12:15:07;;;;;;;3.00;1.10;;;15.50;99.90;;;;;;4342549;28;658451;-74
2023/10/31 12:17:59;;;;;;;1.10;0.80;;;15.30;99.90;;;;;;4348831;28;660157;-73
2023/10/31 12:20:50;;;;;;;5.03;1.23;;;15.30;99.90;;;;;;4348796;28;658528;-73
2023/10/31 12:23:37;;;;;;;1.50;1.10;;;15.10;99.90;;;;;;4348577;28;658888;-74
2023/10/31 12:26:27;;;;;;;1.33;1.00;;;15.10;99.90;;;;;;4347323;28;659050;-73
2023/10/31 12:29:15;;;;;;;2.77;1.10;;;15.00;99.90;;;;;;4342217;28;658995;-73
2023/10/31 12:32:02;;;;;;;2.90;1.10;;;15.00;99.90;;;;;;4364749;28;658663;-73
2023/10/31 12:34:50;;;;;;;2.10;1.07;;;15.00;99.90;;;;;;4372680;28;659002;-73
2023/10/31 12:37:37;;;;;;;1.43;1.00;;;14.90;99.90;;;;;;4368291;28;659941;-73
2023/10/31 12:40:25;;;;;;;3.60;1.20;;;14.90;99.90;;;;;;4371759;28;658956;-73
2023/10/31 12:43:14;;;;;;;1.13;1.00;;;14.90;99.90;;;;;;4364366;28;658629;-73
2023/10/31 12:46:21;;;;;;;1.37;0.70;;;15.00;99.90;;;;;;4365441;28;658418;-74
2023/10/31 12:49:12;;;;;;;2.87;0.97;;;15.10;99.90;;;;;;4318980;28;659186;-74
2023/10/31 12:52:00;;;;;;;2.53;1.40;;;15.00;99.90;;;;;;4349592;28;659373;-73
2023/10/31 12:54:47;;;;;;;2.20;1.33;;;14.80;99.90;;;;;;4365603;28;659088;-72
2023/10/31 12:57:36;;;;;;;2.87;1.50;;;14.90;99.90;;;;;;4370105;28;658779;-73
2023/10/31 13:00:31;;;;;;;3.63;1.53;;;14.80;99.90;;;;;;4348018;28;658818;-73
2023/10/31 13:03:20;;;;;;;2.83;1.20;;;14.70;99.90;;;;;;4346061;28;658852;-73
2023/10/31 13:06:15;;;;;;;5.50;1.80;;;14.80;99.90;;;;;;4365024;28;658109;-73
2023/10/31 13:09:03;;;;;;;1.37;1.03;;;14.70;99.90;;;;;;4327126;28;658717;-73
2023/10/31 13:11:50;;;;;;;4.20;1.70;;;14.70;99.90;;;;;;4364156;28;659086;-73
2023/10/31 13:14:38;;;;;;;4.43;2.00;;;14.60;99.90;;;;;;4352350;28;658898;-73
2023/10/31 13:17:27;;;;;;;3.60;1.80;;;14.60;99.90;;;;;;4370241;28;658769;-74
2023/10/31 13:20:15;;;;;;;4.53;1.80;;;14.60;99.90;;;;;;4345114;28;658827;-73
2023/10/31 13:23:03;;;;;;;6.33;1.87;;;14.50;99.90;;;;;;4351910;28;658924;-73
2023/10/31 13:25:50;;;;;;;3.03;1.50;;;14.60;99.90;;;;;;4369523;28;658462;-73
2023/10/31 13:28:39;;;;;;;3.70;1.57;;;14.60;99.90;;;;;;4346840;28;659578;-73
2023/10/31 13:31:26;;;;;;;1.83;1.30;;;14.50;99.90;;;;;;4367825;28;658571;-74
2023/10/31 13:34:15;;;;;;;3.63;1.60;;;14.50;99.90;;;;;;4344856;28;658212;-74
2023/10/31 13:37:03;;;;;;;2.60;1.50;;;14.40;99.90;;;;;;4354951;28;659520;-73
2023/10/31 13:39:50;;;;;;;5.57;1.70;;;14.40;99.90;;;;;;4372335;28;658878;-73
2023/10/31 13:42:37;;;;;;;1.93;1.53;;;14.40;99.90;;;;;;4345756;28;659047;-74
2023/10/31 13:45:25;;;;;;;2.90;1.43;;;14.30;99.90;;;;;;4365740;28;658991;-73
2023/10/31 13:48:14;;;;;;;4.27;1.60;;;14.10;99.90;;;;;;4361618;28;658547;-73
2023/10/31 13:51:03;;;;;;;4.97;1.80;;;14.10;99.90;;;;;;4368073;28;658300;-73
2023/10/31 13:53:50;;;;;;;3.00;1.87;;;13.90;99.90;;;;;;4341974;28;659257;-74
2023/10/31 13:56:37;;;;;;;3.93;2.03;;;13.80;99.90;;;;;;4348964;28;659112;-74
2023/10/31 13:59:25;;;;;;;7.97;2.70;;;13.80;99.90;;;;;;4367703;28;658689;-74
2023/10/31 14:02:12;;;;;;;9.93;2.80;;;13.60;99.90;;;;;;4362672;28;658649;-74
2023/10/31 14:05:00;;;;;;;5.63;2.37;;;13.60;99.90;;;;;;4362076;28;659092;-73
2023/10/31 14:07:48;;;;;;;5.53;2.70;;;13.50;99.90;;;;;;4368936;28;658812;-74
2023/10/31 14:10:36;;;;;;;4.40;2.40;;;13.40;99.90;;;;;;4345558;28;659938;-74
2023/10/31 14:13:23;;;;;;;7.20;2.47;;;13.30;99.90;;;;;;4343685;28;658290;-74
2023/10/31 14:16:11;;;;;;;9.20;3.00;;;13.30;99.90;;;;;;4365525;28;659655;-74
2023/10/31 14:18:58;;;;;;;9.90;3.50;;;13.30;99.90;;;;;;4344660;28;658440;-73
2023/10/31 14:21:45;;;;;;;10.23;4.00;;;13.20;99.90;;;;;;4369523;28;659851;-73